createdAt,value
2017-11-08T00:01:13.358Z,34.50
2017-11-08T00:03:40.820Z,33.50
2017-11-08T00:06:08.305Z,35.13
2017-11-08T00:08:36.507Z,36.40
2017-11-08T00:11:03.976Z,33.10
2017-11-08T00:13:31.475Z,33.43
2017-11-08T00:15:58.921Z,33.00
2017-11-08T00:18:26.415Z,33.13
2017-11-08T00:20:56.788Z,36.10
2017-11-08T00:23:27.037Z,34.30
2017-11-08T00:25:55.268Z,30.80
2017-11-08T00:28:22.719Z,32.97
2017-11-08T00:30:53.716Z,33.67
2017-11-08T00:33:21.172Z,34.03
2017-11-08T00:35:49.396Z,35.40
2017-11-08T00:38:16.861Z,35.30
2017-11-08T00:40:44.328Z,32.57
2017-11-08T00:43:11.807Z,34.47
2017-11-08T00:45:39.256Z,37.90
2017-11-08T00:48:06.711Z,37.77
2017-11-08T00:50:34.156Z,34.10
2017-11-08T00:53:02.396Z,35.00
2017-11-08T00:55:29.854Z,37.63
2017-11-08T00:58:01.210Z,36.80
2017-11-08T01:00:28.672Z,37.33
2017-11-08T01:02:56.121Z,35.40
2017-11-08T01:05:23.573Z,35.90
2017-11-08T01:07:51.014Z,32.37
2017-11-08T01:10:18.474Z,34.10
2017-11-08T01:12:45.920Z,34.03
2017-11-08T01:15:13.360Z,38.33
2017-11-08T01:17:41.577Z,38.50
2017-11-08T01:20:09.010Z,37.53
2017-11-08T01:22:36.469Z,37.23
2017-11-08T01:25:03.902Z,41.87
2017-11-08T01:27:31.355Z,40.63
2017-11-08T01:29:58.800Z,38.97
2017-11-08T01:32:27.017Z,41.03
2017-11-08T01:34:54.463Z,36.57
2017-11-08T01:40:22.363Z,38.47
2017-11-08T01:42:49.815Z,36.70
2017-11-08T01:45:17.246Z,36.07
2017-11-08T01:47:44.702Z,34.57
2017-11-08T01:50:12.140Z,37.33
2017-11-08T01:52:39.644Z,36.60
2017-11-08T01:55:07.072Z,40.73
2017-11-08T01:57:34.511Z,39.27
2017-11-08T02:00:01.951Z,39.80
2017-11-08T02:02:29.408Z,41.80
2017-11-08T02:04:56.847Z,40.57
2017-11-08T02:07:24.294Z,48.30
2017-11-08T02:09:51.739Z,36.50
2017-11-08T02:12:19.195Z,41.30
2017-11-08T02:14:46.645Z,40.90
2017-11-08T02:17:14.100Z,40.63
2017-11-08T02:19:43.446Z,43.37
2017-11-08T02:22:10.888Z,41.33
2017-11-08T02:24:38.340Z,47.97
2017-11-08T02:27:05.780Z,42.50
2017-11-08T02:29:33.233Z,41.70
2017-11-08T02:32:00.675Z,40.37
2017-11-08T02:34:28.132Z,40.70
2017-11-08T02:36:55.585Z,43.77
2017-11-08T02:39:23.035Z,35.07
2017-11-08T02:41:50.472Z,41.97
2017-11-08T02:44:17.919Z,45.93
2017-11-08T02:46:45.367Z,41.57
2017-11-08T02:49:12.820Z,41.77
2017-11-08T02:51:40.255Z,44.97
2017-11-08T02:54:08.494Z,37.20
2017-11-08T02:56:35.950Z,39.93
2017-11-08T02:59:03.409Z,44.17
2017-11-08T03:01:30.860Z,42.00
2017-11-08T03:04:13.391Z,39.43
2017-11-08T03:06:40.835Z,45.00
2017-11-08T03:09:08.287Z,42.93
2017-11-08T03:11:35.739Z,40.40
2017-11-08T03:14:03.194Z,38.57
2017-11-08T03:16:30.653Z,41.10
2017-11-08T03:18:58.111Z,34.80
2017-11-08T03:21:25.564Z,44.23
2017-11-08T03:23:53.007Z,37.43
2017-11-08T03:26:20.450Z,38.50
2017-11-08T03:28:48.664Z,38.37
2017-11-08T03:31:16.132Z,40.93
2017-11-08T03:33:43.984Z,42.60
2017-11-08T03:36:11.446Z,38.87
2017-11-08T03:38:38.883Z,38.53
2017-11-08T03:41:06.333Z,43.03
2017-11-08T03:43:33.771Z,43.67
2017-11-08T03:46:01.214Z,39.67
2017-11-08T03:48:28.658Z,40.00
2017-11-08T03:50:56.107Z,44.70
2017-11-08T03:56:27.808Z,36.60
2017-11-08T03:58:55.246Z,39.57
2017-11-08T04:01:22.699Z,46.10
2017-11-08T04:03:50.861Z,41.27
2017-11-08T04:06:18.311Z,44.80
2017-11-08T04:08:45.758Z,44.77
2017-11-08T04:11:13.215Z,37.27
2017-11-08T04:19:43.111Z,41.23
2017-11-08T04:22:10.560Z,46.63
2017-11-08T04:24:37.999Z,42.50
2017-11-08T04:27:05.438Z,38.47
2017-11-08T04:29:32.894Z,38.87
2017-11-08T04:32:00.330Z,40.80
2017-11-08T04:34:27.775Z,44.03
2017-11-08T04:36:55.231Z,37.97
2017-11-08T04:39:22.675Z,39.57
2017-11-08T04:41:50.118Z,40.70
2017-11-08T04:44:17.563Z,37.40
2017-11-08T04:46:45.008Z,38.33
2017-11-08T04:49:12.451Z,38.47
2017-11-08T04:51:39.905Z,38.27
2017-11-08T04:54:07.346Z,35.80
2017-11-08T04:56:34.800Z,37.40
2017-11-08T04:59:02.234Z,41.90
2017-11-08T05:01:29.688Z,38.43
2017-11-08T05:03:57.145Z,39.70
2017-11-08T05:06:24.584Z,36.70
2017-11-08T05:08:52.023Z,36.83
2017-11-08T05:11:19.463Z,38.07
2017-11-08T05:13:46.906Z,39.00
2017-11-08T05:16:14.364Z,36.43
2017-11-08T05:18:41.819Z,39.17
2017-11-08T05:21:09.272Z,37.70
2017-11-08T05:23:36.728Z,38.60
2017-11-08T05:26:04.177Z,36.97
2017-11-08T05:28:31.629Z,36.77
2017-11-08T05:31:04.447Z,34.27
2017-11-08T05:33:31.895Z,35.37
2017-11-08T05:35:59.335Z,39.20
2017-11-08T05:38:26.790Z,40.47
2017-11-08T05:40:54.245Z,37.63
2017-11-08T05:43:42.564Z,38.87
2017-11-08T05:46:10.004Z,33.90
2017-11-08T05:48:37.442Z,37.33
2017-11-08T05:51:04.892Z,37.07
2017-11-08T05:53:32.355Z,37.70
2017-11-08T06:01:48.104Z,33.17
2017-11-08T06:07:18.787Z,40.07
2017-11-08T06:09:46.239Z,36.93
2017-11-08T06:15:17.328Z,36.67
2017-11-08T06:17:44.765Z,40.63
2017-11-08T06:20:12.210Z,36.23
2017-11-08T06:22:39.655Z,37.13
2017-11-08T06:25:07.101Z,36.10
2017-11-08T06:27:34.544Z,36.83
2017-11-08T06:30:01.999Z,31.43
2017-11-08T06:32:35.644Z,39.30
2017-11-08T06:35:03.099Z,32.40
2017-11-08T06:37:30.562Z,32.37
2017-11-08T06:39:58.014Z,39.63
2017-11-08T06:42:25.463Z,34.80
2017-11-08T06:44:52.922Z,33.87
2017-11-08T06:47:20.375Z,29.57
2017-11-08T06:49:47.832Z,35.23
2017-11-08T06:52:15.272Z,34.73
2017-11-08T06:54:42.719Z,33.87
2017-11-08T06:57:10.153Z,29.40
2017-11-08T06:59:37.600Z,32.00
2017-11-08T07:02:05.052Z,32.80
2017-11-08T07:04:32.492Z,30.00
2017-11-08T07:07:00.712Z,30.40
2017-11-08T07:09:28.143Z,32.10
2017-11-08T07:11:55.602Z,23.60
2017-11-08T07:14:23.048Z,27.40
2017-11-08T07:16:50.495Z,26.90
2017-11-08T07:19:18.712Z,26.27
2017-11-08T07:21:46.162Z,25.30
2017-11-08T07:24:13.614Z,23.87
2017-11-08T07:26:41.067Z,24.50
2017-11-08T07:29:08.511Z,23.23
2017-11-08T07:31:35.955Z,23.33
2017-11-08T07:34:03.399Z,21.03
2017-11-08T07:36:30.839Z,22.03
2017-11-08T07:38:58.286Z,20.60
2017-11-08T07:41:25.722Z,14.97
2017-11-08T07:43:53.181Z,12.80
2017-11-08T07:46:20.628Z,14.23
2017-11-08T07:48:48.087Z,12.67
2017-11-08T07:51:15.527Z,9.63
2017-11-08T07:53:45.777Z,8.37
2017-11-08T07:56:13.216Z,8.73
2017-11-08T07:58:40.662Z,7.93
2017-11-08T08:01:08.092Z,7.57
2017-11-08T08:03:36.034Z,7.90
2017-11-08T08:06:03.462Z,6.23
2017-11-08T08:08:30.902Z,7.47
2017-11-08T08:11:04.116Z,6.10
2017-11-08T08:13:32.322Z,6.70
2017-11-08T08:15:59.768Z,6.83
2017-11-08T08:18:27.200Z,7.73
2017-11-08T08:20:54.634Z,7.10
2017-11-08T08:23:22.084Z,5.67
2017-11-08T08:25:49.529Z,6.57
2017-11-08T08:28:16.972Z,5.97
2017-11-08T08:30:44.415Z,7.93
2017-11-08T08:33:11.847Z,6.37
2017-11-08T08:35:39.291Z,5.73
2017-11-08T08:38:06.728Z,7.30
2017-11-08T08:40:34.172Z,6.57
2017-11-08T08:43:01.610Z,6.03
2017-11-08T08:45:31.066Z,5.83
2017-11-08T08:47:58.504Z,6.97
2017-11-08T08:50:25.951Z,6.63
2017-11-08T08:52:53.395Z,7.97
2017-11-08T08:55:20.850Z,7.47
2017-11-08T08:57:48.279Z,6.33
2017-11-08T09:00:16.500Z,7.30
2017-11-08T09:02:48.764Z,5.57
2017-11-08T09:05:16.365Z,6.90
2017-11-08T09:07:43.800Z,6.90
2017-11-08T09:10:11.234Z,8.63
2017-11-08T09:12:38.679Z,6.70
2017-11-08T09:15:06.106Z,6.63
2017-11-08T09:17:34.328Z,7.23
2017-11-08T09:20:01.761Z,7.30
2017-11-08T09:22:29.214Z,6.70
2017-11-08T09:24:59.196Z,6.70
2017-11-08T09:27:27.410Z,6.17
2017-11-08T09:29:55.794Z,6.80
2017-11-08T09:32:23.241Z,7.43
2017-11-08T09:34:50.676Z,7.70
2017-11-08T09:37:23.722Z,7.93
2017-11-08T09:39:51.167Z,8.30
2017-11-08T09:42:20.543Z,8.63
2017-11-08T09:44:47.974Z,9.13
2017-11-08T09:47:18.008Z,8.60
2017-11-08T09:49:45.439Z,8.43
2017-11-08T09:52:12.877Z,8.67
2017-11-08T09:54:41.210Z,9.53
2017-11-08T09:57:10.505Z,9.77
2017-11-08T09:59:37.939Z,9.87
2017-11-08T10:02:06.188Z,10.00
2017-11-08T10:04:33.635Z,10.27
2017-11-08T10:07:01.092Z,9.43
2017-11-08T10:09:30.283Z,10.17
2017-11-08T10:12:01.572Z,10.00
2017-11-08T10:14:29.768Z,10.03
2017-11-08T10:16:57.215Z,10.23
2017-11-08T10:19:26.602Z,10.27
2017-11-08T10:21:54.047Z,10.13
2017-11-08T10:24:22.266Z,10.73
2017-11-08T10:26:49.733Z,11.13
2017-11-08T10:29:17.179Z,11.00
2017-11-08T10:31:44.639Z,11.50
2017-11-08T10:34:12.084Z,12.50
2017-11-08T10:36:39.527Z,13.00
2017-11-08T10:39:07.000Z,11.37
2017-11-08T10:41:34.445Z,11.93
2017-11-08T10:44:01.865Z,13.20
2017-11-08T10:46:29.315Z,13.87
2017-11-08T10:48:56.774Z,12.90
2017-11-08T10:51:29.996Z,12.07
2017-11-08T10:53:57.469Z,13.00
2017-11-08T10:56:24.899Z,14.87
2017-11-08T10:58:52.347Z,12.67
2017-11-08T11:01:20.584Z,12.63
2017-11-08T11:03:51.376Z,13.00
2017-11-08T11:06:18.832Z,13.30
2017-11-08T11:08:47.434Z,12.80
2017-11-08T11:11:16.472Z,13.50
2017-11-08T11:16:43.259Z,14.00
2017-11-08T11:58:22.443Z,10.13
2017-11-08T13:21:00.187Z,8.50
2017-11-08T13:43:42.476Z,11.40
2017-11-08T13:46:09.941Z,11.03
2017-11-08T13:48:37.381Z,10.80
2017-11-08T13:51:04.833Z,11.23
2017-11-08T13:53:32.288Z,12.40
2017-11-08T13:55:59.748Z,11.03
2017-11-08T13:58:27.223Z,11.33
2017-11-08T14:00:54.674Z,11.60
2017-11-08T14:03:28.655Z,10.90
2017-11-08T14:05:56.175Z,9.87
2017-11-08T14:08:23.617Z,10.77
2017-11-08T14:10:51.055Z,10.37
2017-11-08T14:13:18.508Z,10.77
2017-11-08T14:15:45.949Z,10.60
2017-11-08T14:18:13.401Z,9.13
2017-11-08T14:20:40.832Z,9.97
2017-11-08T14:23:08.277Z,9.80
2017-11-08T14:25:35.708Z,10.20
2017-11-08T14:28:03.152Z,9.97
2017-11-08T14:30:33.369Z,10.40
2017-11-08T14:33:00.838Z,10.87
2017-11-08T14:35:28.291Z,11.80
2017-11-08T14:37:55.736Z,12.33
2017-11-08T14:40:23.192Z,15.93
2017-11-08T14:42:51.432Z,12.23
2017-11-08T14:45:18.880Z,11.27
2017-11-08T14:47:47.084Z,11.53
2017-11-08T14:50:14.543Z,12.03
2017-11-08T14:52:41.997Z,11.40
2017-11-08T14:55:11.353Z,12.10
2017-11-08T14:57:38.788Z,12.27
2017-11-08T15:00:06.248Z,11.07
2017-11-08T15:02:33.700Z,12.63
2017-11-08T15:05:01.161Z,13.20
2017-11-08T15:07:28.604Z,13.10
2017-11-08T15:09:56.067Z,15.03
2017-11-08T15:12:29.181Z,14.40
2017-11-08T15:14:58.321Z,15.60
2017-11-08T15:17:25.776Z,11.63
2017-11-08T15:20:01.831Z,11.70
2017-11-08T15:22:29.281Z,12.20
2017-11-08T15:24:56.711Z,12.80
2017-11-08T15:27:24.164Z,12.60
2017-11-08T15:29:53.373Z,12.20
2017-11-08T15:32:20.832Z,11.90
2017-11-08T15:34:48.267Z,11.40
2017-11-08T15:37:16.493Z,11.00
2017-11-08T15:39:58.681Z,11.10
2017-11-08T15:42:26.127Z,11.70
2017-11-08T15:44:53.574Z,11.50
2017-11-08T15:47:21.028Z,11.83
2017-11-08T15:49:48.467Z,11.93
2017-11-08T15:52:15.911Z,9.00
2017-11-08T15:54:43.351Z,11.60
2017-11-08T15:57:10.800Z,12.80
2017-11-08T15:59:38.269Z,14.10
2017-11-08T16:02:05.721Z,14.20
2017-11-08T16:04:33.190Z,12.53
2017-11-08T16:07:00.620Z,10.20
2017-11-08T16:09:28.080Z,8.80
2017-11-08T16:11:57.284Z,8.07
2017-11-08T16:14:24.732Z,11.53
2017-11-08T16:16:52.177Z,9.17
2017-11-08T16:19:19.616Z,8.93
2017-11-08T16:21:47.064Z,10.20
2017-11-08T16:24:16.298Z,9.53
2017-11-08T16:26:44.343Z,10.47
2017-11-08T16:29:11.781Z,11.27
2017-11-08T16:31:42.544Z,9.90
2017-11-08T16:34:09.986Z,9.53
2017-11-08T16:36:37.431Z,9.10
2017-11-08T16:39:04.863Z,10.37
2017-11-08T16:41:32.308Z,10.10
2017-11-08T16:43:59.753Z,9.57
2017-11-08T16:46:27.220Z,11.30
2017-11-08T16:48:54.673Z,12.00
2017-11-08T16:51:22.128Z,12.23
2017-11-08T16:53:49.604Z,14.00
2017-11-08T16:56:17.052Z,13.10
2017-11-08T16:58:44.504Z,13.67
2017-11-08T17:01:11.957Z,13.30
2017-11-08T17:03:39.404Z,12.20
2017-11-08T17:06:06.853Z,10.73
2017-11-08T17:08:35.176Z,11.03
2017-11-08T17:11:02.628Z,11.93
2017-11-08T17:13:30.068Z,11.83
2017-11-08T17:15:58.404Z,13.30
2017-11-08T17:18:25.839Z,13.40
2017-11-08T17:20:53.292Z,13.20
2017-11-08T17:23:20.736Z,11.83
2017-11-08T17:25:48.204Z,11.90
2017-11-08T17:28:15.644Z,13.30
2017-11-08T17:30:43.076Z,13.40
2017-11-08T17:33:10.530Z,13.00
2017-11-08T17:35:37.971Z,12.90
2017-11-08T17:38:05.424Z,13.20
2017-11-08T17:40:32.878Z,12.93
2017-11-08T17:43:00.319Z,16.17
2017-11-08T17:45:27.777Z,22.80
2017-11-08T17:47:55.231Z,18.10
2017-11-08T17:50:22.688Z,15.47
2017-11-08T17:52:50.144Z,14.13
2017-11-08T17:55:17.600Z,17.20
2017-11-08T17:57:45.057Z,16.07
2017-11-08T18:00:12.515Z,13.33
2017-11-08T18:02:39.966Z,15.40
2017-11-08T18:05:07.413Z,15.40
2017-11-08T18:07:34.866Z,14.27
2017-11-08T18:10:02.313Z,17.03
2017-11-08T18:12:30.611Z,15.10
2017-11-08T18:14:58.064Z,13.80
2017-11-08T18:17:25.508Z,13.43
2017-11-08T18:19:52.961Z,21.70
2017-11-08T18:22:20.436Z,20.50
2017-11-08T18:24:47.881Z,16.60
2017-11-08T18:27:15.329Z,24.97
2017-11-08T18:29:42.777Z,25.27
2017-11-08T18:32:10.220Z,22.40
2017-11-08T18:34:37.656Z,54.57
2017-11-08T18:37:05.860Z,48.67
2017-11-08T18:39:33.311Z,26.57
2017-11-08T18:42:00.760Z,19.97
2017-11-08T18:47:32.313Z,18.73
2017-11-08T18:49:59.755Z,18.00
2017-11-08T18:52:27.199Z,17.63
2017-11-08T18:54:54.649Z,19.43
2017-11-08T18:57:22.245Z,13.80
2017-11-08T18:59:49.685Z,17.07
2017-11-08T19:02:17.164Z,14.70
2017-11-08T19:04:44.603Z,12.27
2017-11-08T19:07:12.053Z,15.80
2017-11-08T19:09:39.501Z,15.53
2017-11-08T19:12:06.957Z,16.90
2017-11-08T19:14:34.401Z,13.37
2017-11-08T19:17:01.844Z,23.10
2017-11-08T19:19:29.284Z,17.83
2017-11-08T19:21:56.732Z,17.10
2017-11-08T19:24:24.191Z,17.27
2017-11-08T19:26:51.641Z,15.10
2017-11-08T19:29:19.086Z,16.83
2017-11-08T19:31:47.295Z,14.50
2017-11-08T19:34:14.762Z,13.80
2017-11-08T19:36:42.222Z,13.90
2017-11-08T19:39:09.678Z,15.33
2017-11-08T19:41:37.137Z,13.80
2017-11-08T19:44:04.577Z,12.80
2017-11-08T19:46:32.020Z,15.23
2017-11-08T19:48:59.468Z,14.10
2017-11-08T19:51:26.921Z,15.50
2017-11-08T19:53:54.362Z,16.53
2017-11-08T19:56:22.576Z,15.37
2017-11-08T19:58:50.020Z,15.30
2017-11-08T20:01:17.487Z,14.43
2017-11-08T20:03:45.162Z,13.43
2017-11-08T20:06:12.621Z,14.77
2017-11-08T20:08:40.073Z,12.80
2017-11-08T20:11:07.519Z,12.53
2017-11-08T20:13:34.961Z,14.10
2017-11-08T20:16:02.417Z,15.43
2017-11-08T20:18:29.858Z,13.20
2017-11-08T20:20:57.314Z,13.10
2017-11-08T20:23:32.015Z,14.30
2017-11-08T20:25:59.460Z,14.33
2017-11-08T20:28:26.918Z,14.63
2017-11-08T20:30:54.360Z,15.00
2017-11-08T20:33:21.819Z,14.97
2017-11-08T20:35:49.272Z,14.10
2017-11-08T20:38:16.712Z,13.63
2017-11-08T20:40:44.170Z,12.57
2017-11-08T20:43:11.633Z,14.30
2017-11-08T20:45:39.089Z,13.30
2017-11-08T20:48:06.531Z,14.67
2017-11-08T20:50:33.995Z,14.20
2017-11-08T20:56:08.469Z,14.03
2017-11-08T20:58:35.908Z,15.43
2017-11-08T21:01:03.994Z,14.80
2017-11-08T21:03:31.496Z,15.00
2017-11-08T21:05:58.964Z,15.83
2017-11-08T21:08:26.404Z,16.93
2017-11-08T21:10:53.848Z,19.80
2017-11-08T21:13:21.303Z,23.97
2017-11-08T21:15:48.757Z,21.90
2017-11-08T21:18:16.200Z,16.83
2017-11-08T21:20:43.646Z,17.70
2017-11-08T21:23:11.095Z,15.70
2017-11-08T21:25:38.548Z,15.20
2017-11-08T21:28:06.757Z,17.00
2017-11-08T21:30:34.211Z,17.70
2017-11-08T21:54:25.800Z,15.10
2017-11-08T21:56:53.245Z,15.30
2017-11-08T21:59:20.693Z,15.70
2017-11-08T22:01:48.144Z,14.10
2017-11-08T22:04:15.589Z,15.87
2017-11-08T22:06:43.046Z,15.70
2017-11-08T22:09:10.499Z,14.13
2017-11-08T22:11:37.952Z,14.93
2017-11-08T22:14:06.029Z,15.20
2017-11-08T22:16:33.480Z,16.30
2017-11-08T22:19:00.920Z,14.20
2017-11-08T22:21:28.370Z,15.43
2017-11-08T22:23:55.848Z,13.77
2017-11-08T22:26:23.284Z,15.07
2017-11-08T22:28:50.735Z,14.23
2017-11-08T22:31:18.179Z,14.20
2017-11-08T22:33:46.467Z,14.60
2017-11-08T22:36:13.912Z,14.80
2017-11-08T22:38:41.364Z,14.90
2017-11-08T22:41:08.820Z,16.00
2017-11-08T22:49:44.261Z,15.13
2017-11-08T22:52:11.702Z,17.30
2017-11-08T22:54:39.163Z,14.33
2017-11-08T22:57:09.313Z,15.60
2017-11-08T22:59:36.753Z,16.47
2017-11-08T23:02:04.205Z,16.40
2017-11-08T23:04:31.645Z,18.70
2017-11-08T23:06:59.100Z,17.97
2017-11-08T23:09:26.560Z,16.20
2017-11-08T23:11:54.014Z,16.03
2017-11-08T23:14:22.352Z,17.17
2017-11-08T23:16:49.798Z,17.03
2017-11-08T23:19:17.241Z,18.80
2017-11-08T23:21:44.687Z,15.80
2017-11-08T23:24:12.960Z,17.10
2017-11-08T23:26:40.403Z,16.57
2017-11-08T23:29:07.842Z,17.33
2017-11-08T23:31:35.297Z,19.70
2017-11-08T23:34:02.760Z,16.87
2017-11-08T23:36:30.210Z,18.50
2017-11-08T23:38:57.667Z,17.93
2017-11-08T23:41:25.132Z,19.80
2017-11-08T23:43:52.586Z,17.70
2017-11-08T23:46:20.036Z,18.20
2017-11-08T23:48:47.485Z,19.93
2017-11-08T23:51:15.692Z,19.20
2017-11-08T23:53:44.912Z,16.20
2017-11-08T23:56:12.357Z,16.67
2017-11-08T23:58:39.808Z,17.90
